createdAt,value
2019-05-19T00:01:29.249Z,44.48
2019-05-19T00:04:53.342Z,41.45
2019-05-19T00:08:17.189Z,44.15
2019-05-19T00:11:40.651Z,42.67
2019-05-19T00:15:04.480Z,41.10
2019-05-19T00:18:28.247Z,42.30
2019-05-19T00:21:51.634Z,44.58
2019-05-19T00:25:16.761Z,40.17
2019-05-19T00:28:40.312Z,41.98
2019-05-19T00:32:03.612Z,42.62
2019-05-19T00:35:27.885Z,40.73
2019-05-19T00:38:51.681Z,43.83
2019-05-19T00:42:15.212Z,43.92
2019-05-19T00:45:38.592Z,41.02
2019-05-19T00:49:02.308Z,43.75
2019-05-19T00:52:25.510Z,41.37
2019-05-19T00:55:49.804Z,41.23
2019-05-19T00:59:13.890Z,42.10
2019-05-19T01:02:37.280Z,39.45
2019-05-19T01:06:00.733Z,42.78
2019-05-19T01:09:24.168Z,43.00
2019-05-19T01:12:47.805Z,43.02
2019-05-19T01:16:10.936Z,46.35
2019-05-19T01:19:34.095Z,45.28
2019-05-19T01:22:57.615Z,41.02
2019-05-19T01:26:20.952Z,40.60
2019-05-19T01:29:44.063Z,41.75
2019-05-19T01:33:07.227Z,43.52
2019-05-19T01:36:30.816Z,43.87
2019-05-19T01:39:54.463Z,43.52
2019-05-19T01:43:17.795Z,43.98
2019-05-19T01:46:41.079Z,40.10
2019-05-19T01:50:17.505Z,42.05
2019-05-19T01:53:30.934Z,44.27
2019-05-19T01:56:54.244Z,44.13
2019-05-19T02:00:18.707Z,47.85
2019-05-19T02:03:42.088Z,44.95
2019-05-19T02:07:05.408Z,43.48
2019-05-19T02:10:28.581Z,43.00
2019-05-19T02:13:51.747Z,43.13
2019-05-19T02:17:15.151Z,45.15
2019-05-19T02:20:38.328Z,43.80
2019-05-19T02:24:03.549Z,42.70
2019-05-19T02:27:27.080Z,45.52
2019-05-19T02:30:50.526Z,44.88
2019-05-19T02:34:14.235Z,44.25
2019-05-19T02:37:37.291Z,43.68
2019-05-19T02:41:02.542Z,44.58
2019-05-19T02:44:26.768Z,44.77
2019-05-19T02:47:50.718Z,42.55
2019-05-19T02:51:16.009Z,45.75
2019-05-19T02:54:39.563Z,44.93
2019-05-19T02:58:03.304Z,44.60
2019-05-19T03:01:26.815Z,45.05
2019-05-19T03:04:50.479Z,45.90
2019-05-19T03:08:13.843Z,49.80
2019-05-19T03:11:37.068Z,50.08
2019-05-19T03:15:00.290Z,48.92
2019-05-19T03:18:23.453Z,46.80
2019-05-19T03:21:46.738Z,45.60
2019-05-19T03:25:10.238Z,46.23
2019-05-19T03:28:33.744Z,45.57
2019-05-19T03:32:17.207Z,49.95
2019-05-19T03:35:40.826Z,48.80
2019-05-19T03:39:05.775Z,49.77
2019-05-19T03:42:29.138Z,46.87
2019-05-19T03:45:52.508Z,47.53
2019-05-19T03:49:16.130Z,52.60
2019-05-19T03:52:39.529Z,50.63
2019-05-19T03:56:02.769Z,48.28
2019-05-19T03:59:26.037Z,49.97
2019-05-19T04:02:49.469Z,48.63
2019-05-19T04:06:13.218Z,46.93
2019-05-19T04:09:38.344Z,48.87
2019-05-19T04:13:01.872Z,52.48
2019-05-19T04:16:25.268Z,52.20
2019-05-19T04:19:48.717Z,50.60
2019-05-19T04:23:12.287Z,49.80
2019-05-19T04:26:35.587Z,51.23
2019-05-19T04:29:59.925Z,53.70
2019-05-19T04:33:23.089Z,57.57
2019-05-19T04:36:46.854Z,52.78
2019-05-19T04:40:11.783Z,54.20
2019-05-19T04:43:35.403Z,52.58
2019-05-19T04:46:58.872Z,51.58
2019-05-19T04:50:22.228Z,54.63
2019-05-19T04:53:45.535Z,51.15
2019-05-19T04:57:09.159Z,53.00
2019-05-19T05:00:32.415Z,52.15
2019-05-19T05:03:57.514Z,52.17
2019-05-19T05:07:20.961Z,55.40
2019-05-19T05:10:47.435Z,54.85
2019-05-19T05:14:10.827Z,57.43
2019-05-19T05:17:34.366Z,60.83
2019-05-19T05:20:57.953Z,56.58
2019-05-19T05:24:21.308Z,55.05
2019-05-19T05:27:44.525Z,59.58
2019-05-19T05:31:08.253Z,58.78
2019-05-19T05:34:32.046Z,53.28
2019-05-19T05:37:58.684Z,51.95
2019-05-19T05:41:22.272Z,54.10
2019-05-19T05:44:45.835Z,54.40
2019-05-19T05:48:09.362Z,58.60
2019-05-19T05:51:37.250Z,58.78
2019-05-19T05:55:00.748Z,60.48
2019-05-19T05:58:24.057Z,57.58
2019-05-19T06:01:47.316Z,60.80
2019-05-19T06:05:11.241Z,68.67
2019-05-19T06:08:34.760Z,70.95
2019-05-19T06:11:58.640Z,62.95
2019-05-19T06:15:21.912Z,65.80
2019-05-19T06:18:45.547Z,66.82
2019-05-19T06:22:08.869Z,66.75
2019-05-19T06:25:33.412Z,61.15
2019-05-19T06:28:57.563Z,68.28
2019-05-19T06:32:35.869Z,59.45
2019-05-19T06:35:59.897Z,58.42
2019-05-19T06:39:25.347Z,62.40
2019-05-19T06:42:49.240Z,62.98
2019-05-19T06:46:12.991Z,56.25
2019-05-19T06:49:36.392Z,55.88
2019-05-19T06:53:13.553Z,51.45
2019-05-19T06:56:25.225Z,52.95
2019-05-19T06:59:48.464Z,58.13
2019-05-19T07:03:11.545Z,52.38
2019-05-19T07:06:34.940Z,52.35
2019-05-19T07:09:59.054Z,53.33
2019-05-19T07:13:22.734Z,53.80
2019-05-19T07:16:45.992Z,49.33
2019-05-19T07:20:10.873Z,55.55
2019-05-19T07:23:34.685Z,51.58
2019-05-19T07:26:58.118Z,48.08
2019-05-19T07:30:21.417Z,47.05
2019-05-19T07:33:48.171Z,50.58
2019-05-19T07:37:12.547Z,49.73
2019-05-19T07:40:38.159Z,50.85
2019-05-19T07:44:03.744Z,45.85
2019-05-19T07:47:31.182Z,51.00
2019-05-19T07:50:55.243Z,46.85
2019-05-19T07:54:19.099Z,45.55
2019-05-19T07:57:43.432Z,46.20
2019-05-19T08:01:10.943Z,43.63
2019-05-19T08:04:35.273Z,46.25
2019-05-19T08:07:59.055Z,40.43
2019-05-19T08:11:23.034Z,43.70
2019-05-19T08:14:47.017Z,42.75
2019-05-19T08:18:10.853Z,48.75
2019-05-19T08:21:35.847Z,47.08
2019-05-19T08:24:59.833Z,42.78
2019-05-19T08:28:25.060Z,39.05
2019-05-19T08:31:49.358Z,37.08
2019-05-19T08:35:13.058Z,33.00
2019-05-19T08:38:36.451Z,35.33
2019-05-19T08:42:03.038Z,35.20
2019-05-19T08:45:27.255Z,32.40
2019-05-19T08:48:51.112Z,33.98
2019-05-19T08:52:14.474Z,36.10
2019-05-19T08:55:38.702Z,31.02
2019-05-19T08:59:02.720Z,30.43
2019-05-19T09:02:26.358Z,28.27
2019-05-19T09:05:50.021Z,27.42
2019-05-19T09:09:13.406Z,26.55
2019-05-19T09:12:37.076Z,24.80
2019-05-19T09:16:00.656Z,25.15
2019-05-19T09:19:24.055Z,23.65
2019-05-19T09:22:48.141Z,21.65
2019-05-19T09:26:11.698Z,19.77
2019-05-19T09:29:35.048Z,17.73
2019-05-19T09:32:59.703Z,15.15
2019-05-19T09:36:23.551Z,17.80
2019-05-19T09:39:46.944Z,17.45
2019-05-19T09:43:10.463Z,18.67
2019-05-19T09:46:34.389Z,15.58
2019-05-19T09:49:57.840Z,15.32
2019-05-19T09:53:21.991Z,15.23
2019-05-19T09:56:45.556Z,15.53
2019-05-19T10:00:09.957Z,15.32
2019-05-19T10:03:33.379Z,15.58
2019-05-19T10:06:56.710Z,14.58
2019-05-19T10:11:14.233Z,11.80
2019-05-19T10:14:37.467Z,13.93
2019-05-19T10:18:00.842Z,11.93
2019-05-19T10:21:24.069Z,11.50
2019-05-19T10:25:03.995Z,12.00
2019-05-19T10:28:12.152Z,12.82
2019-05-19T10:31:35.530Z,12.90
2019-05-19T10:34:58.726Z,11.70
2019-05-19T10:38:22.053Z,11.80
2019-05-19T10:41:45.382Z,11.95
2019-05-19T10:45:09.230Z,10.32
2019-05-19T10:48:32.726Z,10.08
2019-05-19T10:51:56.362Z,11.10
2019-05-19T10:55:19.459Z,9.70
2019-05-19T10:58:43.345Z,8.15
2019-05-19T11:02:08.789Z,8.68
2019-05-19T11:05:44.975Z,8.25
2019-05-19T11:09:20.541Z,6.80
2019-05-19T11:12:56.267Z,6.30
2019-05-19T11:16:38.831Z,6.78
2019-05-19T11:20:18.192Z,6.67
2019-05-19T11:24:00.833Z,7.72
2019-05-19T11:27:36.486Z,7.17
2019-05-19T11:31:13.908Z,5.83
2019-05-19T11:34:56.669Z,5.87
2019-05-19T11:38:31.994Z,7.17
2019-05-19T11:42:07.442Z,6.83
2019-05-19T11:45:49.972Z,5.95
2019-05-19T11:49:25.923Z,6.05
2019-05-19T11:53:03.221Z,6.62
2019-05-19T11:56:38.722Z,6.78
2019-05-19T12:00:14.429Z,9.00
2019-05-19T12:03:57.058Z,7.65
2019-05-19T12:07:32.933Z,8.03
2019-05-19T12:11:08.425Z,8.80
2019-05-19T12:14:51.477Z,7.25
2019-05-19T12:18:27.654Z,8.58
2019-05-19T12:22:03.792Z,8.10
2019-05-19T12:25:46.472Z,8.60
2019-05-19T12:29:26.052Z,8.30
2019-05-19T12:33:08.784Z,9.00
2019-05-19T12:40:41.525Z,8.40
2019-05-19T12:44:24.030Z,10.10
2019-05-19T12:47:59.711Z,10.08
2019-05-19T12:51:42.661Z,7.10
2019-05-19T12:55:18.709Z,9.05
2019-05-19T12:58:54.075Z,9.43
2019-05-19T13:02:29.734Z,8.60
2019-05-19T13:06:05.253Z,11.00
2019-05-19T13:09:48.198Z,10.48
2019-05-19T13:13:24.220Z,9.88
2019-05-19T13:17:06.755Z,10.43
2019-05-19T13:20:42.263Z,7.62
2019-05-19T13:24:25.120Z,7.97
2019-05-19T13:28:00.913Z,7.92
2019-05-19T13:31:43.446Z,7.15
2019-05-19T13:35:18.994Z,7.25
2019-05-19T13:39:01.509Z,7.03
2019-05-19T13:42:38.869Z,7.97
2019-05-19T13:46:21.533Z,7.50
2019-05-19T13:49:56.948Z,7.45
2019-05-19T13:53:39.463Z,6.62
2019-05-19T13:57:15.535Z,6.37
2019-05-19T14:00:58.060Z,6.03
2019-05-19T14:04:33.707Z,5.95
2019-05-19T14:08:16.400Z,5.62
2019-05-19T14:11:52.124Z,6.25
2019-05-19T14:15:34.754Z,5.20
2019-05-19T14:19:10.393Z,5.55
2019-05-19T14:22:53.007Z,5.67
2019-05-19T14:26:28.505Z,6.05
2019-05-19T14:30:11.058Z,5.62
2019-05-19T14:33:46.894Z,5.85
2019-05-19T14:37:29.431Z,6.17
2019-05-19T14:41:05.094Z,5.15
2019-05-19T14:44:47.646Z,4.85
2019-05-19T14:48:22.732Z,3.98
2019-05-19T14:52:05.383Z,3.58
2019-05-19T14:55:41.055Z,3.35
2019-05-19T14:59:23.759Z,3.10
2019-05-19T15:02:59.126Z,3.75
2019-05-19T15:06:34.562Z,3.58
2019-05-19T15:10:17.379Z,3.42
2019-05-19T15:13:53.459Z,2.98
2019-05-19T15:17:16.565Z,2.90
2019-05-19T15:20:39.721Z,2.62
2019-05-19T15:24:02.883Z,2.72
2019-05-19T15:27:26.000Z,2.77
2019-05-19T15:30:50.170Z,2.85
2019-05-19T15:34:13.236Z,2.35
2019-05-19T15:37:36.653Z,2.70
2019-05-19T15:40:59.795Z,2.67
2019-05-19T15:44:22.978Z,1.80
2019-05-19T15:47:46.107Z,2.17
2019-05-19T15:51:09.169Z,2.25
2019-05-19T15:54:32.589Z,2.35
2019-05-19T15:57:56.782Z,2.52
2019-05-19T16:01:19.874Z,2.05
2019-05-19T16:04:43.102Z,2.35
2019-05-19T16:08:06.258Z,2.65
2019-05-19T16:11:29.353Z,2.40
2019-05-19T16:14:52.492Z,2.50
2019-05-19T16:18:15.701Z,2.40
2019-05-19T16:21:38.849Z,1.95
2019-05-19T16:25:02.119Z,2.40
2019-05-19T16:28:30.814Z,2.20
2019-05-19T16:31:51.274Z,2.17
2019-05-19T16:35:15.022Z,2.67
2019-05-19T16:38:38.312Z,2.20
2019-05-19T16:42:01.419Z,2.47
2019-05-19T16:45:24.929Z,2.70
2019-05-19T16:48:48.062Z,2.30
2019-05-19T16:52:11.331Z,2.70
2019-05-19T16:55:34.788Z,2.95
2019-05-19T16:58:58.027Z,2.72
2019-05-19T17:02:21.187Z,2.80
2019-05-19T17:05:44.269Z,2.85
2019-05-19T17:09:07.678Z,2.30
2019-05-19T17:12:31.283Z,2.55
2019-05-19T17:15:54.458Z,2.67
2019-05-19T17:19:17.769Z,2.75
2019-05-19T17:22:40.858Z,2.85
2019-05-19T17:26:04.006Z,3.02
2019-05-19T17:29:27.325Z,2.98
2019-05-19T17:32:50.442Z,3.52
2019-05-19T17:36:13.461Z,3.15
2019-05-19T17:39:36.557Z,3.60
2019-05-19T17:42:59.637Z,3.35
2019-05-19T17:46:22.748Z,3.27
2019-05-19T17:49:46.016Z,3.50
2019-05-19T17:53:09.200Z,3.85
2019-05-19T17:56:32.485Z,4.58
2019-05-19T17:59:56.268Z,4.00
2019-05-19T18:03:19.677Z,3.45
2019-05-19T18:06:42.973Z,5.42
2019-05-19T18:10:06.397Z,5.12
2019-05-19T18:13:29.695Z,6.33
2019-05-19T18:16:53.057Z,7.12
2019-05-19T18:20:23.889Z,8.55
2019-05-19T18:23:41.385Z,8.58
2019-05-19T18:27:04.656Z,10.53
2019-05-19T18:30:28.148Z,10.43
2019-05-19T18:33:54.507Z,10.55
2019-05-19T18:37:18.054Z,12.45
2019-05-19T18:40:41.738Z,11.03
2019-05-19T18:44:05.421Z,13.08
2019-05-19T18:47:29.040Z,14.33
2019-05-19T18:50:54.698Z,13.90
2019-05-19T18:54:18.330Z,15.13
2019-05-19T18:57:41.541Z,14.63
2019-05-19T19:01:05.367Z,14.90
2019-05-19T19:04:29.060Z,14.68
2019-05-19T19:07:54.456Z,15.40
2019-05-19T19:11:23.788Z,18.65
2019-05-19T19:14:47.496Z,20.37
2019-05-19T19:18:13.398Z,20.20
2019-05-19T19:21:37.050Z,20.82
2019-05-19T19:25:00.652Z,21.45
2019-05-19T19:28:24.805Z,22.30
2019-05-19T19:31:48.961Z,22.35
2019-05-19T19:35:14.981Z,22.50
2019-05-19T19:38:38.796Z,22.82
2019-05-19T19:42:02.403Z,25.77
2019-05-19T19:45:25.883Z,24.23
2019-05-19T19:48:49.613Z,24.37
2019-05-19T19:52:14.127Z,25.62
2019-05-19T19:55:37.632Z,26.27
2019-05-19T19:59:02.246Z,26.05
2019-05-19T20:02:25.896Z,24.23
2019-05-19T20:05:50.221Z,24.43
2019-05-19T20:09:14.534Z,23.38
2019-05-19T20:12:37.758Z,23.35
2019-05-19T20:16:01.009Z,25.10
2019-05-19T20:19:27.245Z,24.02
2019-05-19T20:22:50.575Z,24.70
2019-05-19T20:26:13.848Z,24.05
2019-05-19T20:29:37.080Z,24.90
2019-05-19T20:33:00.243Z,22.15
2019-05-19T20:36:25.267Z,22.73
2019-05-19T20:39:48.410Z,22.80
2019-05-19T20:43:11.528Z,20.02
2019-05-19T20:46:34.695Z,20.75
2019-05-19T20:49:57.769Z,18.98
2019-05-19T20:53:20.833Z,20.02
2019-05-19T20:56:43.959Z,19.20
2019-05-19T21:00:07.652Z,17.10
2019-05-19T21:03:31.436Z,14.95
2019-05-19T21:06:55.148Z,15.85
2019-05-19T21:10:18.705Z,14.47
2019-05-19T21:13:45.225Z,15.25
2019-05-19T21:17:09.028Z,14.35
2019-05-19T21:20:33.673Z,13.40
2019-05-19T21:23:56.845Z,13.22
2019-05-19T21:27:20.064Z,12.55
2019-05-19T21:30:43.237Z,12.68
2019-05-19T21:34:06.351Z,12.25
2019-05-19T21:37:29.567Z,13.53
2019-05-19T21:40:52.893Z,12.05
2019-05-19T21:44:16.020Z,14.18
2019-05-19T21:47:39.173Z,13.93
2019-05-19T21:51:02.365Z,13.53
2019-05-19T21:54:25.831Z,14.25
2019-05-19T21:57:49.041Z,13.98
2019-05-19T22:01:22.756Z,15.60
2019-05-19T22:04:37.589Z,14.90
2019-05-19T22:08:04.073Z,15.70
2019-05-19T22:11:27.518Z,15.65
2019-05-19T22:14:50.693Z,16.42
2019-05-19T22:18:13.837Z,18.32
2019-05-19T22:21:37.562Z,17.32
2019-05-19T22:25:00.728Z,18.48
2019-05-19T22:28:24.012Z,17.98
2019-05-19T22:31:47.373Z,18.62
2019-05-19T22:35:12.645Z,17.85
2019-05-19T22:38:35.992Z,20.10
2019-05-19T22:41:59.175Z,17.50
2019-05-19T22:45:22.385Z,20.00
2019-05-19T22:48:46.541Z,19.62
2019-05-19T22:52:09.729Z,18.95
2019-05-19T22:55:33.097Z,20.05
2019-05-19T22:58:56.272Z,19.50
2019-05-19T23:02:19.526Z,19.87
2019-05-19T23:05:42.586Z,20.27
2019-05-19T23:09:06.366Z,20.40
2019-05-19T23:12:29.423Z,21.07
2019-05-19T23:15:52.517Z,20.85
2019-05-19T23:19:15.612Z,20.90
2019-05-19T23:22:38.801Z,21.25
2019-05-19T23:26:01.961Z,21.50
2019-05-19T23:29:26.266Z,21.40
2019-05-19T23:32:49.428Z,22.25
2019-05-19T23:36:12.545Z,23.47
2019-05-19T23:39:35.779Z,22.93
2019-05-19T23:42:58.877Z,26.27
2019-05-19T23:46:21.959Z,23.22
2019-05-19T23:49:45.066Z,25.20
2019-05-19T23:53:08.245Z,22.73
2019-05-19T23:56:31.411Z,23.95
2019-05-19T23:59:54.525Z,24.92
